sensor_id;sensor_type;location;lat;lon;timestamp;pressure;altitude;pressure_sealevel;temperature
64394;BMP280;50712;49.506;10.400;2022-10-31T00:00:27;98525.91;;;15.33
64394;BMP280;50712;49.506;10.400;2022-10-31T00:00:58;98524.34;;;15.32
64394;BMP280;50712;49.506;10.400;2022-10-31T00:01:33;98527.88;;;15.33
64394;BMP280;50712;49.506;10.400;2022-10-31T00:02:06;98523.63;;;15.32
64394;BMP280;50712;49.506;10.400;2022-10-31T00:02:36;98524.34;;;15.32
64394;BMP280;50712;49.506;10.400;2022-10-31T00:03:07;98522.84;;;15.31
64394;BMP280;50712;49.506;10.400;2022-10-31T00:03:37;98524.06;;;15.30
64394;BMP280;50712;49.506;10.400;2022-10-31T00:04:07;98526.03;;;15.30
64394;BMP280;50712;49.506;10.400;2022-10-31T00:04:38;98521.31;;;15.30
64394;BMP280;50712;49.506;10.400;2022-10-31T00:05:08;98524.06;;;15.30
64394;BMP280;50712;49.506;10.400;2022-10-31T00:05:48;98520.56;;;15.30
64394;BMP280;50712;49.506;10.400;2022-10-31T00:06:19;98525.28;;;15.29
64394;BMP280;50712;49.506;10.400;2022-10-31T00:06:50;98519.03;;;15.29
64394;BMP280;50712;49.506;10.400;2022-10-31T00:07:21;98525.78;;;15.28
64394;BMP280;50712;49.506;10.400;2022-10-31T00:07:52;98523.75;;;15.28
64394;BMP280;50712;49.506;10.400;2022-10-31T00:08:22;98526.22;;;15.26
64394;BMP280;50712;49.506;10.400;2022-10-31T00:08:54;98530.50;;;15.27
64394;BMP280;50712;49.506;10.400;2022-10-31T00:09:29;98522.72;;;15.26
64394;BMP280;50712;49.506;10.400;2022-10-31T00:09:59;98525.00;;;15.27
64394;BMP280;50712;49.506;10.400;2022-10-31T00:10:30;98519.22;;;15.25
64394;BMP280;50712;49.506;10.400;2022-10-31T00:11:00;98524.72;;;15.25
64394;BMP280;50712;49.506;10.400;2022-10-31T00:11:30;98518.44;;;15.25
64394;BMP280;50712;49.506;10.400;2022-10-31T00:12:01;98523.63;;;15.23
64394;BMP280;50712;49.506;10.400;2022-10-31T00:12:31;98522.13;;;15.22
64394;BMP280;50712;49.506;10.400;2022-10-31T00:13:02;98520.59;;;15.21
64394;BMP280;50712;49.506;10.400;2022-10-31T00:13:32;98516.31;;;15.20
64394;BMP280;50712;49.506;10.400;2022-10-31T00:14:02;98518.34;;;15.19
64394;BMP280;50712;49.506;10.400;2022-10-31T00:14:33;98517.56;;;15.19
64394;BMP280;50712;49.506;10.400;2022-10-31T00:15:04;98523.81;;;15.19
64394;BMP280;50712;49.506;10.400;2022-10-31T00:15:35;98523.06;;;15.19
64394;BMP280;50712;49.506;10.400;2022-10-31T00:16:12;98518.34;;;15.19
64394;BMP280;50712;49.506;10.400;2022-10-31T00:16:44;98515.59;;;15.19
64394;BMP280;50712;49.506;10.400;2022-10-31T00:17:14;98521.53;;;15.18
64394;BMP280;50712;49.506;10.400;2022-10-31T00:17:44;98525.03;;;15.18
64394;BMP280;50712;49.506;10.400;2022-10-31T00:18:17;98525.03;;;15.18
64394;BMP280;50712;49.506;10.400;2022-10-31T00:18:48;98524.25;;;15.18
64394;BMP280;50712;49.506;10.400;2022-10-31T00:19:23;98518.50;;;15.16
64394;BMP280;50712;49.506;10.400;2022-10-31T00:19:53;98520.47;;;15.15
64394;BMP280;50712;49.506;10.400;2022-10-31T00:20:24;98524.75;;;15.16
64394;BMP280;50712;49.506;10.400;2022-10-31T00:21:00;98522.00;;;15.16
64394;BMP280;50712;49.506;10.400;2022-10-31T00:21:32;98523.22;;;15.15
64394;BMP280;50712;49.506;10.400;2022-10-31T00:22:03;98519.25;;;15.16
64394;BMP280;50712;49.506;10.400;2022-10-31T00:22:33;98518.50;;;15.16
64394;BMP280;50712;49.506;10.400;2022-10-31T00:23:04;98525.97;;;15.15
64394;BMP280;50712;49.506;10.400;2022-10-31T00:23:35;98519.72;;;15.15
64394;BMP280;50712;49.506;10.400;2022-10-31T00:24:05;98521.69;;;15.14
64394;BMP280;50712;49.506;10.400;2022-10-31T00:24:36;98518.66;;;15.12
64394;BMP280;50712;49.506;10.400;2022-10-31T00:25:06;98525.66;;;15.13
64394;BMP280;50712;49.506;10.400;2022-10-31T00:25:38;98520.63;;;15.12
64394;BMP280;50712;49.506;10.400;2022-10-31T00:26:09;98519.88;;;15.11
64394;BMP280;50712;49.506;10.400;2022-10-31T00:26:39;98519.13;;;15.11
64394;BMP280;50712;49.506;10.400;2022-10-31T00:27:10;98521.09;;;15.10
64394;BMP280;50712;49.506;10.400;2022-10-31T00:27:40;98518.34;;;15.10
64394;BMP280;50712;49.506;10.400;2022-10-31T00:28:11;98521.09;;;15.10
64394;BMP280;50712;49.506;10.400;2022-10-31T00:28:42;98528.59;;;15.10
64394;BMP280;50712;49.506;10.400;2022-10-31T00:29:13;98525.09;;;15.09
64394;BMP280;50712;49.506;10.400;2022-10-31T00:29:44;98528.28;;;15.07
64394;BMP280;50712;49.506;10.400;2022-10-31T00:30:14;98519.28;;;15.07
64394;BMP280;50712;49.506;10.400;2022-10-31T00:30:45;98526.75;;;15.06
64394;BMP280;50712;49.506;10.400;2022-10-31T00:31:15;98523.25;;;15.06
64394;BMP280;50712;49.506;10.400;2022-10-31T00:31:46;98520.50;;;15.06
64394;BMP280;50712;49.506;10.400;2022-10-31T00:32:16;98522.50;;;15.06
64394;BMP280;50712;49.506;10.400;2022-10-31T00:32:46;98523.72;;;15.04
64394;BMP280;50712;49.506;10.400;2022-10-31T00:33:17;98527.25;;;15.05
64394;BMP280;50712;49.506;10.400;2022-10-31T00:33:47;98524.50;;;15.05
64394;BMP280;50712;49.506;10.400;2022-10-31T00:34:20;98526.47;;;15.04
64394;BMP280;50712;49.506;10.400;2022-10-31T00:34:51;98526.75;;;15.06
64394;BMP280;50712;49.506;10.400;2022-10-31T00:35:22;98526.00;;;15.06
64394;BMP280;50712;49.506;10.400;2022-10-31T00:35:52;98529.22;;;15.04
64394;BMP280;50712;49.506;10.400;2022-10-31T00:36:23;98523.72;;;15.04
64394;BMP280;50712;49.506;10.400;2022-10-31T00:36:53;98529.97;;;15.05
64394;BMP280;50712;49.506;10.400;2022-10-31T00:37:23;98525.25;;;15.06
64394;BMP280;50712;49.506;10.400;2022-10-31T00:37:54;98527.25;;;15.05
64394;BMP280;50712;49.506;10.400;2022-10-31T00:38:24;98531.19;;;15.04
64394;BMP280;50712;49.506;10.400;2022-10-31T00:38:54;98525.69;;;15.04
64394;BMP280;50712;49.506;10.400;2022-10-31T00:39:25;98533.94;;;15.04
64394;BMP280;50712;49.506;10.400;2022-10-31T00:39:55;98529.69;;;15.03
64394;BMP280;50712;49.506;10.400;2022-10-31T00:40:26;98526.47;;;15.04
64394;BMP280;50712;49.506;10.400;2022-10-31T00:40:57;98522.19;;;15.03
64394;BMP280;50712;49.506;10.400;2022-10-31T00:41:27;98528.44;;;15.04
64394;BMP280;50712;49.506;10.400;2022-10-31T00:41:59;98524.19;;;15.03
64394;BMP280;50712;49.506;10.400;2022-10-31T00:42:29;98537.91;;;15.03
64394;BMP280;50712;49.506;10.400;2022-10-31T00:43:02;98527.38;;;15.01
64394;BMP280;50712;49.506;10.400;2022-10-31T00:43:32;98528.59;;;15.00
64394;BMP280;50712;49.506;10.400;2022-10-31T00:44:02;98529.34;;;15.01
64394;BMP280;50712;49.506;10.400;2022-10-31T00:44:33;98531.34;;;15.00
64394;BMP280;50712;49.506;10.400;2022-10-31T00:45:04;98527.13;;;14.99
64394;BMP280;50712;49.506;10.400;2022-10-31T00:45:34;98527.13;;;14.99
64394;BMP280;50712;49.506;10.400;2022-10-31T00:46:04;98529.84;;;14.99
64394;BMP280;50712;49.506;10.400;2022-10-31T00:46:35;98531.06;;;14.98
64394;BMP280;50712;49.506;10.400;2022-10-31T00:47:05;98534.56;;;14.99
64394;BMP280;50712;49.506;10.400;2022-10-31T00:47:36;98529.09;;;14.99
64394;BMP280;50712;49.506;10.400;2022-10-31T00:48:06;98532.59;;;14.99
64394;BMP280;50712;49.506;10.400;2022-10-31T00:48:37;98535.03;;;14.97
64394;BMP280;50712;49.506;10.400;2022-10-31T00:49:07;98525.28;;;14.96
64394;BMP280;50712;49.506;10.400;2022-10-31T00:49:38;98534.25;;;14.97
64394;BMP280;50712;49.506;10.400;2022-10-31T00:50:08;98536.25;;;14.96
64394;BMP280;50712;49.506;10.400;2022-10-31T00:50:39;98536.69;;;14.95
64394;BMP280;50712;49.506;10.400;2022-10-31T00:51:10;98527.69;;;14.94
64394;BMP280;50712;49.506;10.400;2022-10-31T00:51:40;98530.44;;;14.94
64394;BMP280;50712;49.506;10.400;2022-10-31T00:52:11;98538.66;;;14.94
64394;BMP280;50712;49.506;10.400;2022-10-31T00:52:41;98534.44;;;14.93
64394;BMP280;50712;49.506;10.400;2022-10-31T00:53:12;98527.44;;;14.92
64394;BMP280;50712;49.506;10.400;2022-10-31T00:53:42;98530.16;;;14.92
64394;BMP280;50712;49.506;10.400;2022-10-31T00:54:13;98531.38;;;14.91
64394;BMP280;50712;49.506;10.400;2022-10-31T00:54:43;98529.41;;;14.92
64394;BMP280;50712;49.506;10.400;2022-10-31T00:55:14;98532.63;;;14.90
64394;BMP280;50712;49.506;10.400;2022-10-31T00:55:44;98527.88;;;14.91
64394;BMP280;50712;49.506;10.400;2022-10-31T00:56:15;98523.63;;;14.90
64394;BMP280;50712;49.506;10.400;2022-10-31T00:56:46;98529.09;;;14.90
64394;BMP280;50712;49.506;10.400;2022-10-31T00:57:16;98528.81;;;14.88
64394;BMP280;50712;49.506;10.400;2022-10-31T00:57:47;98521.31;;;14.88
64394;BMP280;50712;49.506;10.400;2022-10-31T00:58:17;98530.03;;;14.87
64394;BMP280;50712;49.506;10.400;2022-10-31T00:58:56;98528.03;;;14.87
64394;BMP280;50712;49.506;10.400;2022-10-31T00:59:26;98532.03;;;14.86
64394;BMP280;50712;49.506;10.400;2022-10-31T00:59:56;98532.03;;;14.86
64394;BMP280;50712;49.506;10.400;2022-10-31T01:00:27;98530.47;;;14.85
64394;BMP280;50712;49.506;10.400;2022-10-31T01:00:57;98527.75;;;14.85
64394;BMP280;50712;49.506;10.400;2022-10-31T01:01:28;98526.97;;;14.85
64394;BMP280;50712;49.506;10.400;2022-10-31T01:01:59;98529.72;;;14.85
64394;BMP280;50712;49.506;10.400;2022-10-31T01:02:29;98528.19;;;14.84
64394;BMP280;50712;49.506;10.400;2022-10-31T01:03:00;98530.19;;;14.83
64394;BMP280;50712;49.506;10.400;2022-10-31T01:03:31;98526.66;;;14.83
64394;BMP280;50712;49.506;10.400;2022-10-31T01:04:02;98534.44;;;14.84
64394;BMP280;50712;49.506;10.400;2022-10-31T01:04:32;98532.16;;;14.83
64394;BMP280;50712;49.506;10.400;2022-10-31T01:05:03;98531.41;;;14.82
64394;BMP280;50712;49.506;10.400;2022-10-31T01:05:33;98522.13;;;14.80
64394;BMP280;50712;49.506;10.400;2022-10-31T01:06:06;98532.63;;;14.81
64394;BMP280;50712;49.506;10.400;2022-10-31T01:06:39;98532.31;;;14.79
64394;BMP280;50712;49.506;10.400;2022-10-31T01:07:09;98528.03;;;14.78
64394;BMP280;50712;49.506;10.400;2022-10-31T01:07:42;98532.75;;;14.78
64394;BMP280;50712;49.506;10.400;2022-10-31T01:08:13;98527.00;;;14.76
64394;BMP280;50712;49.506;10.400;2022-10-31T01:08:44;98535.25;;;14.76
64394;BMP280;50712;49.506;10.400;2022-10-31T01:09:17;98527.47;;;14.74
64394;BMP280;50712;49.506;10.400;2022-10-31T01:09:47;98535.72;;;14.74
64394;BMP280;50712;49.506;10.400;2022-10-31T01:10:18;98531.44;;;14.73
64394;BMP280;50712;49.506;10.400;2022-10-31T01:10:57;98531.44;;;14.73
64394;BMP280;50712;49.506;10.400;2022-10-31T01:11:29;98528.38;;;14.71
64394;BMP280;50712;49.506;10.400;2022-10-31T01:11:59;98527.16;;;14.72
64394;BMP280;50712;49.506;10.400;2022-10-31T01:12:30;98533.88;;;14.71
64394;BMP280;50712;49.506;10.400;2022-10-31T01:13:06;98533.13;;;14.71
64394;BMP280;50712;49.506;10.400;2022-10-31T01:13:36;98535.88;;;14.71
64394;BMP280;50712;49.506;10.400;2022-10-31T01:14:07;98530.06;;;14.69
64394;BMP280;50712;49.506;10.400;2022-10-31T01:14:41;98532.81;;;14.69
64394;BMP280;50712;49.506;10.400;2022-10-31T01:15:14;98531.28;;;14.68
64394;BMP280;50712;49.506;10.400;2022-10-31T01:15:53;98527.00;;;14.67
64394;BMP280;50712;49.506;10.400;2022-10-31T01:16:25;98527.47;;;14.65
64394;BMP280;50712;49.506;10.400;2022-10-31T01:16:56;98522.00;;;14.65
64394;BMP280;50712;49.506;10.400;2022-10-31T01:17:26;98536.19;;;14.64
64394;BMP280;50712;49.506;10.400;2022-10-31T01:17:57;98529.94;;;14.63
64394;BMP280;50712;49.506;10.400;2022-10-31T01:18:27;98527.19;;;14.63
64394;BMP280;50712;49.506;10.400;2022-10-31T01:18:58;98528.38;;;14.62
64394;BMP280;50712;49.506;10.400;2022-10-31T01:19:31;98526.41;;;14.63
64394;BMP280;50712;49.506;10.400;2022-10-31T01:20:01;98526.41;;;14.63
64394;BMP280;50712;49.506;10.400;2022-10-31T01:20:31;98526.88;;;14.61
64394;BMP280;50712;49.506;10.400;2022-10-31T01:21:08;98520.16;;;14.62
64394;BMP280;50712;49.506;10.400;2022-10-31T01:21:43;98531.13;;;14.62
64394;BMP280;50712;49.506;10.400;2022-10-31T01:22:13;98524.91;;;14.62
64394;BMP280;50712;49.506;10.400;2022-10-31T01:22:43;98524.91;;;14.62
64394;BMP280;50712;49.506;10.400;2022-10-31T01:23:14;98524.91;;;14.62
64394;BMP280;50712;49.506;10.400;2022-10-31T01:23:44;98522.91;;;14.62
64394;BMP280;50712;49.506;10.400;2022-10-31T01:24:17;98517.88;;;14.61
64394;BMP280;50712;49.506;10.400;2022-10-31T01:24:47;98518.66;;;14.61
64394;BMP280;50712;49.506;10.400;2022-10-31T01:25:17;98523.38;;;14.61
64394;BMP280;50712;49.506;10.400;2022-10-31T01:25:48;98530.09;;;14.60
64394;BMP280;50712;49.506;10.400;2022-10-31T01:26:20;98525.34;;;14.60
64394;BMP280;50712;49.506;10.400;2022-10-31T01:26:52;98527.03;;;14.58
64394;BMP280;50712;49.506;10.400;2022-10-31T01:27:22;98521.56;;;14.58
64394;BMP280;50712;49.506;10.400;2022-10-31T01:27:53;98531.00;;;14.57
64394;BMP280;50712;49.506;10.400;2022-10-31T01:28:23;98527.50;;;14.56
64394;BMP280;50712;49.506;10.400;2022-10-31T01:28:54;98531.47;;;14.55
64394;BMP280;50712;49.506;10.400;2022-10-31T01:29:29;98527.19;;;14.54
64394;BMP280;50712;49.506;10.400;2022-10-31T01:30:01;98529.94;;;14.54
64394;BMP280;50712;49.506;10.400;2022-10-31T01:30:32;98525.69;;;14.53
64394;BMP280;50712;49.506;10.400;2022-10-31T01:31:04;98528.41;;;14.53
64394;BMP280;50712;49.506;10.400;2022-10-31T01:31:38;98528.13;;;14.51
64394;BMP280;50712;49.506;10.400;2022-10-31T01:32:09;98528.88;;;14.52
64394;BMP280;50712;49.506;10.400;2022-10-31T01:32:39;98526.16;;;14.52
64394;BMP280;50712;49.506;10.400;2022-10-31T01:33:09;98528.88;;;14.52
64394;BMP280;50712;49.506;10.400;2022-10-31T01:33:40;98533.59;;;14.51
64394;BMP280;50712;49.506;10.400;2022-10-31T01:34:14;98524.59;;;14.51
64394;BMP280;50712;49.506;10.400;2022-10-31T01:34:46;98530.09;;;14.51
64394;BMP280;50712;49.506;10.400;2022-10-31T01:35:17;98530.09;;;14.51
64394;BMP280;50712;49.506;10.400;2022-10-31T01:35:47;98523.84;;;14.50
64394;BMP280;50712;49.506;10.400;2022-10-31T01:36:19;98530.56;;;14.49
64394;BMP280;50712;49.506;10.400;2022-10-31T01:36:54;98527.81;;;14.49
64394;BMP280;50712;49.506;10.400;2022-10-31T01:37:26;98528.28;;;14.48
64394;BMP280;50712;49.506;10.400;2022-10-31T01:37:56;98530.25;;;14.47
64394;BMP280;50712;49.506;10.400;2022-10-31T01:38:27;98524.00;;;14.47
64394;BMP280;50712;49.506;10.400;2022-10-31T01:38:58;98531.47;;;14.46
64394;BMP280;50712;49.506;10.400;2022-10-31T01:39:33;98522.50;;;14.46
64394;BMP280;50712;49.506;10.400;2022-10-31T01:40:04;98524.47;;;14.45
64394;BMP280;50712;49.506;10.400;2022-10-31T01:40:34;98519.75;;;14.46
64394;BMP280;50712;49.506;10.400;2022-10-31T01:41:05;98524.91;;;14.44
64394;BMP280;50712;49.506;10.400;2022-10-31T01:41:36;98522.16;;;14.44
64394;BMP280;50712;49.506;10.400;2022-10-31T01:42:26;98522.63;;;14.42
64394;BMP280;50712;49.506;10.400;2022-10-31T01:42:57;98520.66;;;14.43
64394;BMP280;50712;49.506;10.400;2022-10-31T01:43:47;98528.88;;;14.43
64394;BMP280;50712;49.506;10.400;2022-10-31T01:45:00;98519.16;;;14.42
64394;BMP280;50712;49.506;10.400;2022-10-31T01:45:31;98524.63;;;14.42
64394;BMP280;50712;49.506;10.400;2022-10-31T01:46:01;98518.38;;;14.41
64394;BMP280;50712;49.506;10.400;2022-10-31T01:47:14;98522.34;;;14.40
64394;BMP280;50712;49.506;10.400;2022-10-31T01:47:47;98515.66;;;14.41
64394;BMP280;50712;49.506;10.400;2022-10-31T01:48:19;98524.34;;;14.40
64394;BMP280;50712;49.506;10.400;2022-10-31T01:48:57;98513.81;;;14.38
64394;BMP280;50712;49.506;10.400;2022-10-31T01:49:43;98523.22;;;14.37
64394;BMP280;50712;49.506;10.400;2022-10-31T01:50:26;98512.75;;;14.36
64394;BMP280;50712;49.506;10.400;2022-10-31T01:51:00;98517.19;;;14.33
64394;BMP280;50712;49.506;10.400;2022-10-31T01:51:36;98514.88;;;14.32
64394;BMP280;50712;49.506;10.400;2022-10-31T01:52:22;98514.09;;;14.31
64394;BMP280;50712;49.506;10.400;2022-10-31T01:52:56;98508.63;;;14.31
64394;BMP280;50712;49.506;10.400;2022-10-31T01:53:30;98507.13;;;14.30
64394;BMP280;50712;49.506;10.400;2022-10-31T01:54:04;98511.84;;;14.30
64394;BMP280;50712;49.506;10.400;2022-10-31T01:54:39;98509.13;;;14.30
64394;BMP280;50712;49.506;10.400;2022-10-31T01:55:16;98513.06;;;14.29
64394;BMP280;50712;49.506;10.400;2022-10-31T01:55:50;98505.59;;;14.29
64394;BMP280;50712;49.506;10.400;2022-10-31T01:56:21;98509.88;;;14.30
64394;BMP280;50712;49.506;10.400;2022-10-31T01:56:52;98506.38;;;14.30
64394;BMP280;50712;49.506;10.400;2022-10-31T01:57:25;98511.84;;;14.30
64394;BMP280;50712;49.506;10.400;2022-10-31T01:58:00;98514.59;;;14.30
64394;BMP280;50712;49.506;10.400;2022-10-31T01:58:36;98514.09;;;14.31
64394;BMP280;50712;49.506;10.400;2022-10-31T01:59:07;98507.84;;;14.31
64394;BMP280;50712;49.506;10.400;2022-10-31T01:59:42;98513.34;;;14.31
64394;BMP280;50712;49.506;10.400;2022-10-31T02:00:18;98510.31;;;14.29
64394;BMP280;50712;49.506;10.400;2022-10-31T02:00:51;98502.88;;;14.29
64394;BMP280;50712;49.506;10.400;2022-10-31T02:01:22;98514.59;;;14.30
64394;BMP280;50712;49.506;10.400;2022-10-31T02:01:53;98509.13;;;14.30
64394;BMP280;50712;49.506;10.400;2022-10-31T02:02:23;98511.84;;;14.30
64394;BMP280;50712;49.506;10.400;2022-10-31T02:02:57;98507.56;;;14.29
64394;BMP280;50712;49.506;10.400;2022-10-31T02:03:29;98510.31;;;14.29
64394;BMP280;50712;49.506;10.400;2022-10-31T02:04:00;98511.53;;;14.28
64394;BMP280;50712;49.506;10.400;2022-10-31T02:04:31;98511.53;;;14.28
64394;BMP280;50712;49.506;10.400;2022-10-31T02:05:02;98510.00;;;14.27
64394;BMP280;50712;49.506;10.400;2022-10-31T02:05:37;98508.47;;;14.26
64394;BMP280;50712;49.506;10.400;2022-10-31T02:06:10;98509.25;;;14.26
64394;BMP280;50712;49.506;10.400;2022-10-31T02:07:20;98507.72;;;14.25
64394;BMP280;50712;49.506;10.400;2022-10-31T02:08:33;98511.69;;;14.24
64394;BMP280;50712;49.506;10.400;2022-10-31T02:09:06;98511.69;;;14.24
64394;BMP280;50712;49.506;10.400;2022-10-31T02:09:37;98510.19;;;14.23
64394;BMP280;50712;49.506;10.400;2022-10-31T02:10:09;98506.66;;;14.23
64394;BMP280;50712;49.506;10.400;2022-10-31T02:10:40;98506.66;;;14.23
64394;BMP280;50712;49.506;10.400;2022-10-31T02:11:11;98513.69;;;14.24
64394;BMP280;50712;49.506;10.400;2022-10-31T02:11:42;98506.66;;;14.23
64394;BMP280;50712;49.506;10.400;2022-10-31T02:12:15;98514.13;;;14.22
64394;BMP280;50712;49.506;10.400;2022-10-31T02:12:46;98511.38;;;14.22
64394;BMP280;50712;49.506;10.400;2022-10-31T02:13:17;98516.88;;;14.22
64394;BMP280;50712;49.506;10.400;2022-10-31T02:13:52;98513.34;;;14.21
64394;BMP280;50712;49.506;10.400;2022-10-31T02:14:22;98516.88;;;14.22
64394;BMP280;50712;49.506;10.400;2022-10-31T02:14:55;98501.63;;;14.21
64394;BMP280;50712;49.506;10.400;2022-10-31T02:15:26;98510.31;;;14.19
64394;BMP280;50712;49.506;10.400;2022-10-31T02:15:58;98509.09;;;14.20
64394;BMP280;50712;49.506;10.400;2022-10-31T02:16:28;98504.06;;;14.19
64394;BMP280;50712;49.506;10.400;2022-10-31T02:16:59;98501.78;;;14.17
64394;BMP280;50712;49.506;10.400;2022-10-31T02:17:29;98501.78;;;14.17
64394;BMP280;50712;49.506;10.400;2022-10-31T02:18:01;98494.78;;;14.16
64394;BMP280;50712;49.506;10.400;2022-10-31T02:18:32;98507.25;;;14.17
64394;BMP280;50712;49.506;10.400;2022-10-31T02:19:03;98502.56;;;14.18
64394;BMP280;50712;49.506;10.400;2022-10-31T02:20:21;98504.22;;;14.15
64394;BMP280;50712;49.506;10.400;2022-10-31T02:21:07;98504.22;;;14.15
64394;BMP280;50712;49.506;10.400;2022-10-31T02:21:49;98500.72;;;14.15
64394;BMP280;50712;49.506;10.400;2022-10-31T02:22:49;98501.47;;;14.15
64394;BMP280;50712;49.506;10.400;2022-10-31T02:24:31;98509.69;;;14.15
64394;BMP280;50712;49.506;10.400;2022-10-31T02:26:17;98504.38;;;14.12
64394;BMP280;50712;49.506;10.400;2022-10-31T02:28:51;98506.94;;;14.06
64394;BMP280;50712;49.506;10.400;2022-10-31T02:30:22;98505.44;;;14.05
64394;BMP280;50712;49.506;10.400;2022-10-31T02:34:44;98491.88;;;14.02
64394;BMP280;50712;49.506;10.400;2022-10-31T02:38:17;98501.47;;;13.97
64394;BMP280;50712;49.506;10.400;2022-10-31T02:39:08;98499.50;;;13.98
64394;BMP280;50712;49.506;10.400;2022-10-31T02:41:04;98500.41;;;13.95
64394;BMP280;50712;49.506;10.400;2022-10-31T02:42:38;98500.88;;;13.93
64394;BMP280;50712;49.506;10.400;2022-10-31T02:43:27;98491.59;;;13.91
64394;BMP280;50712;49.506;10.400;2022-10-31T02:44:16;98497.06;;;13.91
64394;BMP280;50712;49.506;10.400;2022-10-31T02:45:05;98497.50;;;13.89
64394;BMP280;50712;49.506;10.400;2022-10-31T02:45:51;98501.47;;;13.88
64394;BMP280;50712;49.506;10.400;2022-10-31T02:46:34;98493.72;;;13.87
64394;BMP280;50712;49.506;10.400;2022-10-31T02:47:12;98494.19;;;13.85
64394;BMP280;50712;49.506;10.400;2022-10-31T02:47:46;98496.16;;;13.85
64394;BMP280;50712;49.506;10.400;2022-10-31T02:48:21;98494.59;;;13.84
64394;BMP280;50712;49.506;10.400;2022-10-31T02:48:57;98496.59;;;13.83
64394;BMP280;50712;49.506;10.400;2022-10-31T02:49:36;98498.56;;;13.83
64394;BMP280;50712;49.506;10.400;2022-10-31T02:50:21;98499.03;;;13.81
64394;BMP280;50712;49.506;10.400;2022-10-31T02:51:00;98496.31;;;13.81
64394;BMP280;50712;49.506;10.400;2022-10-31T02:51:33;98494.78;;;13.80
64394;BMP280;50712;49.506;10.400;2022-10-31T02:52:14;98498.72;;;13.79
64394;BMP280;50712;49.506;10.400;2022-10-31T02:53:03;98499.94;;;13.78
64394;BMP280;50712;49.506;10.400;2022-10-31T02:53:35;98495.66;;;13.77
64394;BMP280;50712;49.506;10.400;2022-10-31T02:54:16;98496.13;;;13.76
64394;BMP280;50712;49.506;10.400;2022-10-31T02:54:48;98496.13;;;13.76
64394;BMP280;50712;49.506;10.400;2022-10-31T02:55:58;98504.81;;;13.74
64394;BMP280;50712;49.506;10.400;2022-10-31T02:56:34;98500.53;;;13.73
64394;BMP280;50712;49.506;10.400;2022-10-31T02:57:05;98497.34;;;13.75
64394;BMP280;50712;49.506;10.400;2022-10-31T02:57:37;98499.31;;;13.74
64394;BMP280;50712;49.506;10.400;2022-10-31T02:58:11;98499.31;;;13.74
64394;BMP280;50712;49.506;10.400;2022-10-31T02:58:57;98498.56;;;13.74
64394;BMP280;50712;49.506;10.400;2022-10-31T02:59:32;98504.81;;;13.74
64394;BMP280;50712;49.506;10.400;2022-10-31T03:00:09;98498.13;;;13.75
64394;BMP280;50712;49.506;10.400;2022-10-31T03:03:19;98502.84;;;13.75
64394;BMP280;50712;49.506;10.400;2022-10-31T03:06:33;98497.78;;;13.73
64394;BMP280;50712;49.506;10.400;2022-10-31T03:07:14;98496.28;;;13.72
64394;BMP280;50712;49.506;10.400;2022-10-31T03:07:57;98494.75;;;13.71
64394;BMP280;50712;49.506;10.400;2022-10-31T03:08:30;98504.94;;;13.71
64394;BMP280;50712;49.506;10.400;2022-10-31T03:09:17;98497.94;;;13.70
64394;BMP280;50712;49.506;10.400;2022-10-31T03:10:03;98497.94;;;13.70
64394;BMP280;50712;49.506;10.400;2022-10-31T03:10:47;98502.69;;;13.69
64394;BMP280;50712;49.506;10.400;2022-10-31T03:11:41;98498.41;;;13.68
64394;BMP280;50712;49.506;10.400;2022-10-31T03:12:28;98494.47;;;13.69
64394;BMP280;50712;49.506;10.400;2022-10-31T03:13:07;98495.66;;;13.68
64394;BMP280;50712;49.506;10.400;2022-10-31T03:13:45;98503.41;;;13.70
64394;BMP280;50712;49.506;10.400;2022-10-31T03:14:24;98501.91;;;13.69
64394;BMP280;50712;49.506;10.400;2022-10-31T03:15:13;98505.41;;;13.69
64394;BMP280;50712;49.506;10.400;2022-10-31T03:15:50;98500.69;;;13.70
64394;BMP280;50712;49.506;10.400;2022-10-31T03:17:27;98499.94;;;13.69
64394;BMP280;50712;49.506;10.400;2022-10-31T03:18:08;98500.69;;;13.70
64394;BMP280;50712;49.506;10.400;2022-10-31T03:18:43;98511.63;;;13.70
64394;BMP280;50712;49.506;10.400;2022-10-31T03:19:58;98501.91;;;13.69
64394;BMP280;50712;49.506;10.400;2022-10-31T03:20:10;98504.66;;;13.69
64394;BMP280;50712;49.506;10.400;2022-10-31T03:21:01;98506.63;;;13.68
64394;BMP280;50712;49.506;10.400;2022-10-31T03:21:40;98502.69;;;13.69
64394;BMP280;50712;49.506;10.400;2022-10-31T03:22:19;98503.88;;;13.68
64394;BMP280;50712;49.506;10.400;2022-10-31T03:22:57;98503.13;;;13.68
64394;BMP280;50712;49.506;10.400;2022-10-31T03:23:31;98499.59;;;13.67
64394;BMP280;50712;49.506;10.400;2022-10-31T03:24:04;98496.88;;;13.67
64394;BMP280;50712;49.506;10.400;2022-10-31T03:24:38;98509.78;;;13.67
64394;BMP280;50712;49.506;10.400;2022-10-31T03:25:10;98505.53;;;13.66
64394;BMP280;50712;49.506;10.400;2022-10-31T03:25:44;98497.75;;;13.64
64394;BMP280;50712;49.506;10.400;2022-10-31T03:26:16;98500.50;;;13.64
64394;BMP280;50712;49.506;10.400;2022-10-31T03:26:50;98500.50;;;13.64
64394;BMP280;50712;49.506;10.400;2022-10-31T03:27:25;98497.75;;;13.64
64394;BMP280;50712;49.506;10.400;2022-10-31T03:27:57;98496.25;;;13.63
64394;BMP280;50712;49.506;10.400;2022-10-31T03:28:33;98502.47;;;13.64
64394;BMP280;50712;49.506;10.400;2022-10-31T03:29:14;98499.72;;;13.64
64394;BMP280;50712;49.506;10.400;2022-10-31T03:29:46;98499.72;;;13.64
64394;BMP280;50712;49.506;10.400;2022-10-31T03:30:20;98497.00;;;13.64
64394;BMP280;50712;49.506;10.400;2022-10-31T03:31:01;98509.50;;;13.65
64394;BMP280;50712;49.506;10.400;2022-10-31T03:31:43;98512.22;;;13.65
64394;BMP280;50712;49.506;10.400;2022-10-31T03:32:20;98502.47;;;13.64
64394;BMP280;50712;49.506;10.400;2022-10-31T03:32:55;98505.22;;;13.64
64394;BMP280;50712;49.506;10.400;2022-10-31T03:33:29;98504.47;;;13.63
64394;BMP280;50712;49.506;10.400;2022-10-31T03:34:05;98503.72;;;13.63
64394;BMP280;50712;49.506;10.400;2022-10-31T03:34:37;98502.97;;;13.62
64394;BMP280;50712;49.506;10.400;2022-10-31T03:35:11;98501.00;;;13.63